sensor_id;sensor_type;location;lat;lon;timestamp;pressure;altitude;pressure_sealevel;temperature;humidity
55656;BME280;41530;52.382;5.270;2023-02-28T00:00:49;103456.00;;;13.98;47.52
55656;BME280;41530;52.382;5.270;2023-02-28T00:03:15;103449.16;;;13.92;47.45
55656;BME280;41530;52.382;5.270;2023-02-28T00:05:42;103453.34;;;13.98;47.51
55656;BME280;41530;52.382;5.270;2023-02-28T00:08:09;103460.34;;;13.99;47.60
55656;BME280;41530;52.382;5.270;2023-02-28T00:10:35;103456.06;;;13.96;47.43
55656;BME280;41530;52.382;5.270;2023-02-28T00:13:04;103462.06;;;14.00;47.61
55656;BME280;41530;52.382;5.270;2023-02-28T00:15:32;103461.19;;;13.99;47.53
55656;BME280;41530;52.382;5.270;2023-02-28T00:17:58;103456.97;;;13.95;47.44
55656;BME280;41530;52.382;5.270;2023-02-28T00:20:25;103458.69;;;13.96;47.37
55656;BME280;41530;52.382;5.270;2023-02-28T00:22:53;103453.59;;;13.91;47.47
55656;BME280;41530;52.382;5.270;2023-02-28T00:25:22;103463.13;;;13.96;47.45
55656;BME280;41530;52.382;5.270;2023-02-28T00:27:50;103458.03;;;13.91;47.48
55656;BME280;41530;52.382;5.270;2023-02-28T00:30:19;103453.59;;;13.91;47.67
55656;BME280;41530;52.382;5.270;2023-02-28T00:32:45;103455.31;;;13.93;47.43
55656;BME280;41530;52.382;5.270;2023-02-28T00:35:12;103449.34;;;13.87;47.54
55656;BME280;41530;52.382;5.270;2023-02-28T00:37:39;103458.09;;;13.89;47.55
55656;BME280;41530;52.382;5.270;2023-02-28T00:40:06;103458.03;;;13.91;47.54
55656;BME280;41530;52.382;5.270;2023-02-28T00:42:34;103450.09;;;13.91;47.45
55656;BME280;41530;52.382;5.270;2023-02-28T00:45:01;103457.16;;;13.90;47.48
55656;BME280;41530;52.382;5.270;2023-02-28T00:47:30;103445.03;;;13.85;47.43
55656;BME280;41530;52.382;5.270;2023-02-28T00:49:57;103452.78;;;13.89;47.49
55656;BME280;41530;52.382;5.270;2023-02-28T00:52:24;103447.63;;;13.86;47.43
55656;BME280;41530;52.382;5.270;2023-02-28T00:54:50;103442.38;;;13.85;47.49
55656;BME280;41530;52.382;5.270;2023-02-28T00:57:17;103442.38;;;13.85;47.62
55656;BME280;41530;52.382;5.270;2023-02-28T00:59:44;103438.06;;;13.84;47.36
55656;BME280;41530;52.382;5.270;2023-02-28T01:02:10;103435.53;;;13.81;47.44
55656;BME280;41530;52.382;5.270;2023-02-28T01:04:37;103440.59;;;13.85;47.52
55656;BME280;41530;52.382;5.270;2023-02-28T01:07:04;103441.47;;;13.86;47.59
55656;BME280;41530;52.382;5.270;2023-02-28T01:09:30;103437.97;;;13.85;47.37
55656;BME280;41530;52.382;5.270;2023-02-28T01:11:57;103445.78;;;13.88;47.36
55656;BME280;41530;52.382;5.270;2023-02-28T01:14:23;103439.84;;;13.83;47.31
55656;BME280;41530;52.382;5.270;2023-02-28T01:16:50;103432.75;;;13.84;47.39
55656;BME280;41530;52.382;5.270;2023-02-28T01:19:17;103440.53;;;13.87;47.47
55656;BME280;41530;52.382;5.270;2023-02-28T01:21:44;103446.03;;;13.82;47.50
55656;BME280;41530;52.382;5.270;2023-02-28T01:24:11;103445.03;;;13.85;47.40
55656;BME280;41530;52.382;5.270;2023-02-28T01:26:37;103441.63;;;13.83;47.36
55656;BME280;41530;52.382;5.270;2023-02-28T01:29:04;103434.72;;;13.79;47.46
55656;BME280;41530;52.382;5.270;2023-02-28T01:31:30;103440.81;;;13.81;47.25
55656;BME280;41530;52.382;5.270;2023-02-28T01:33:57;103437.25;;;13.82;47.58
55656;BME280;41530;52.382;5.270;2023-02-28T01:36:25;103435.66;;;13.78;47.65
55656;BME280;41530;52.382;5.270;2023-02-28T01:38:52;103433.06;;;13.76;47.55
55656;BME280;41530;52.382;5.270;2023-02-28T01:41:25;103426.78;;;13.79;47.46
55656;BME280;41530;52.382;5.270;2023-02-28T01:43:59;103429.56;;;13.76;47.46
55656;BME280;41530;52.382;5.270;2023-02-28T01:46:26;103423.47;;;13.74;47.63
55656;BME280;41530;52.382;5.270;2023-02-28T01:49:03;103431.28;;;13.77;47.41
55656;BME280;41530;52.382;5.270;2023-02-28T01:51:56;103423.41;;;13.75;47.50
55656;BME280;41530;52.382;5.270;2023-02-28T01:54:27;103418.31;;;13.71;47.29
55656;BME280;41530;52.382;5.270;2023-02-28T01:57:03;103426.97;;;13.74;47.44
55656;BME280;41530;52.382;5.270;2023-02-28T01:59:38;103421.91;;;13.70;47.53
55656;BME280;41530;52.382;5.270;2023-02-28T02:02:13;103429.63;;;13.74;47.33
55656;BME280;41530;52.382;5.270;2023-02-28T02:04:50;103423.63;;;13.71;47.46
55656;BME280;41530;52.382;5.270;2023-02-28T02:07:17;103413.16;;;13.68;47.57
55656;BME280;41530;52.382;5.270;2023-02-28T02:09:44;103403.56;;;13.65;47.47
55656;BME280;41530;52.382;5.270;2023-02-28T02:14:54;103412.16;;;13.70;47.48
55656;BME280;41530;52.382;5.270;2023-02-28T02:17:34;103398.25;;;13.65;47.44
55656;BME280;41530;52.382;5.270;2023-02-28T02:37:36;103409.81;;;13.63;47.50
55656;BME280;41530;52.382;5.270;2023-02-28T02:40:19;103408.97;;;13.62;47.39
55656;BME280;41530;52.382;5.270;2023-02-28T02:42:51;103414.94;;;13.67;47.54
55656;BME280;41530;52.382;5.270;2023-02-28T02:45:26;103412.28;;;13.67;47.62
55656;BME280;41530;52.382;5.270;2023-02-28T02:47:57;103400.38;;;13.57;47.75
55656;BME280;41530;52.382;5.270;2023-02-28T02:50:30;103415.19;;;13.61;47.58
55656;BME280;41530;52.382;5.270;2023-02-28T02:53:01;103410.56;;;13.66;47.65
55656;BME280;41530;52.382;5.270;2023-02-28T02:55:31;103411.56;;;13.64;47.61
55656;BME280;41530;52.382;5.270;2023-02-28T02:58:06;103410.56;;;13.66;47.54
55656;BME280;41530;52.382;5.270;2023-02-28T03:00:39;103411.56;;;13.64;47.49
55656;BME280;41530;52.382;5.270;2023-02-28T03:03:09;103400.16;;;13.62;47.70
55656;BME280;41530;52.382;5.270;2023-02-28T03:05:50;103410.75;;;13.62;47.46
55656;BME280;41530;52.382;5.270;2023-02-28T03:08:17;103413.41;;;13.62;47.47
55656;BME280;41530;52.382;5.270;2023-02-28T03:10:47;103411.50;;;13.65;47.54
55656;BME280;41530;52.382;5.270;2023-02-28T03:13:33;103416.78;;;13.65;47.60
55656;BME280;41530;52.382;5.270;2023-02-28T03:23:59;103406.44;;;13.59;47.67
55656;BME280;41530;52.382;5.270;2023-02-28T03:26:31;103401.91;;;13.63;47.50
55656;BME280;41530;52.382;5.270;2023-02-28T03:30:09;103400.16;;;13.62;47.67
55656;BME280;41530;52.382;5.270;2023-02-28T03:32:25;103406.31;;;13.62;47.72
55656;BME280;41530;52.382;5.270;2023-02-28T03:35:12;103401.09;;;13.61;47.48
55656;BME280;41530;52.382;5.270;2023-02-28T03:37:42;103405.56;;;13.59;47.80
55656;BME280;41530;52.382;5.270;2023-02-28T03:40:19;103399.53;;;13.57;47.48
55656;BME280;41530;52.382;5.270;2023-02-28T03:42:50;103413.41;;;13.62;47.75
55656;BME280;41530;52.382;5.270;2023-02-28T03:45:25;103411.03;;;13.55;47.61
55656;BME280;41530;52.382;5.270;2023-02-28T03:50:26;103423.28;;;13.58;47.59
55656;BME280;41530;52.382;5.270;2023-02-28T03:55:55;103415.50;;;13.53;47.66
55656;BME280;41530;52.382;5.270;2023-02-28T04:01:19;103408.50;;;13.52;47.72
55656;BME280;41530;52.382;5.270;2023-02-28T04:03:47;103418.97;;;13.55;47.72
55656;BME280;41530;52.382;5.270;2023-02-28T04:06:16;103407.41;;;13.58;47.61
55656;BME280;41530;52.382;5.270;2023-02-28T04:08:44;103412.59;;;13.60;47.61
55656;BME280;41530;52.382;5.270;2023-02-28T04:13:40;103398.03;;;13.49;47.68
55656;BME280;41530;52.382;5.270;2023-02-28T04:16:07;103411.88;;;13.56;47.51
55656;BME280;41530;52.382;5.270;2023-02-28T04:18:49;103410.09;;;13.57;47.62
55656;BME280;41530;52.382;5.270;2023-02-28T04:21:16;103421.38;;;13.60;47.58
55656;BME280;41530;52.382;5.270;2023-02-28T04:23:46;103416.16;;;13.59;47.68
55656;BME280;41530;52.382;5.270;2023-02-28T04:26:13;103416.16;;;13.59;47.64
55656;BME280;41530;52.382;5.270;2023-02-28T04:28:40;103411.81;;;13.58;47.74
55656;BME280;41530;52.382;5.270;2023-02-28T04:31:06;103407.47;;;13.57;47.56
55656;BME280;41530;52.382;5.270;2023-02-28T04:33:33;103404.81;;;13.57;47.59
55656;BME280;41530;52.382;5.270;2023-02-28T04:36:05;103408.22;;;13.59;47.67
55656;BME280;41530;52.382;5.270;2023-02-28T04:38:33;103408.22;;;13.59;47.61
55656;BME280;41530;52.382;5.270;2023-02-28T04:41:00;103407.47;;;13.57;47.57
55656;BME280;41530;52.382;5.270;2023-02-28T04:43:27;103406.44;;;13.59;47.54
55656;BME280;41530;52.382;5.270;2023-02-28T04:46:00;103407.31;;;13.60;47.49
55656;BME280;41530;52.382;5.270;2023-02-28T04:48:28;103410.03;;;13.58;47.61
55656;BME280;41530;52.382;5.270;2023-02-28T04:51:00;103412.69;;;13.58;47.51
55656;BME280;41530;52.382;5.270;2023-02-28T04:53:28;103409.19;;;13.58;47.82
55656;BME280;41530;52.382;5.270;2023-02-28T04:55:56;103406.59;;;13.56;47.39
55656;BME280;41530;52.382;5.270;2023-02-28T04:58:23;103402.28;;;13.53;47.55
55656;BME280;41530;52.382;5.270;2023-02-28T05:00:52;103400.44;;;13.55;47.45
55656;BME280;41530;52.382;5.270;2023-02-28T05:03:20;103399.63;;;13.53;47.58
55656;BME280;41530;52.382;5.270;2023-02-28T05:05:48;103397.84;;;13.54;47.59
55656;BME280;41530;52.382;5.270;2023-02-28T05:08:14;103404.88;;;13.55;47.38
55656;BME280;41530;52.382;5.270;2023-02-28T05:10:41;103409.31;;;13.54;47.59
55656;BME280;41530;52.382;5.270;2023-02-28T05:13:11;103408.44;;;13.54;47.51
55656;BME280;41530;52.382;5.270;2023-02-28T05:15:38;103404.19;;;13.50;47.77
55656;BME280;41530;52.382;5.270;2023-02-28T05:18:05;103405.06;;;13.50;47.42
55656;BME280;41530;52.382;5.270;2023-02-28T05:20:31;103416.44;;;13.52;47.91
55656;BME280;41530;52.382;5.270;2023-02-28T05:22:58;103413.84;;;13.51;47.40
55656;BME280;41530;52.382;5.270;2023-02-28T05:25:25;103404.31;;;13.47;47.61
55656;BME280;41530;52.382;5.270;2023-02-28T05:27:52;103407.88;;;13.46;47.46
55656;BME280;41530;52.382;5.270;2023-02-28T05:30:18;103416.66;;;13.46;47.72
55656;BME280;41530;52.382;5.270;2023-02-28T05:32:49;103411.25;;;13.49;47.56
55656;BME280;41530;52.382;5.270;2023-02-28T05:35:17;103417.47;;;13.48;47.46
55656;BME280;41530;52.382;5.270;2023-02-28T05:37:43;103403.50;;;13.45;47.77
55656;BME280;41530;52.382;5.270;2023-02-28T05:40:10;103406.88;;;13.48;47.67
55656;BME280;41530;52.382;5.270;2023-02-28T05:42:37;103415.91;;;13.44;47.76
55656;BME280;41530;52.382;5.270;2023-02-28T05:45:05;103405.38;;;13.43;47.47
55656;BME280;41530;52.382;5.270;2023-02-28T05:47:33;103414.09;;;13.45;47.46
55656;BME280;41530;52.382;5.270;2023-02-28T05:50:00;103410.78;;;13.40;47.61
55656;BME280;41530;52.382;5.270;2023-02-28T05:52:28;103411.72;;;13.39;47.76
55656;BME280;41530;52.382;5.270;2023-02-28T05:54:56;103416.94;;;13.40;47.83
55656;BME280;41530;52.382;5.270;2023-02-28T05:57:23;103421.31;;;13.41;47.71
55656;BME280;41530;52.382;5.270;2023-02-28T05:59:50;103427.41;;;13.43;47.48
55656;BME280;41530;52.382;5.270;2023-02-28T06:02:17;103424.81;;;13.42;47.68
55656;BME280;41530;52.382;5.270;2023-02-28T06:04:44;103430.97;;;13.42;47.61
55656;BME280;41530;52.382;5.270;2023-02-28T06:07:11;103438.91;;;13.42;47.62
55656;BME280;41530;52.382;5.270;2023-02-28T06:09:38;103435.44;;;13.40;47.71
55656;BME280;41530;52.382;5.270;2023-02-28T06:12:06;103439.00;;;13.39;47.50
55656;BME280;41530;52.382;5.270;2023-02-28T06:14:34;103440.78;;;13.39;47.65
55656;BME280;41530;52.382;5.270;2023-02-28T06:17:02;103421.81;;;13.29;47.78
55656;BME280;41530;52.382;5.270;2023-02-28T06:19:29;103438.19;;;13.37;47.68
55656;BME280;41530;52.382;5.270;2023-02-28T06:21:57;103448.72;;;13.39;47.62
55656;BME280;41530;52.382;5.270;2023-02-28T06:24:25;103445.97;;;13.42;47.48
55656;BME280;41530;52.382;5.270;2023-02-28T06:26:54;103445.09;;;13.41;47.84
55656;BME280;41530;52.382;5.270;2023-02-28T06:29:21;103444.31;;;13.39;47.56
55656;BME280;41530;52.382;5.270;2023-02-28T06:31:47;103437.41;;;13.35;47.27
55656;BME280;41530;52.382;5.270;2023-02-28T06:34:16;103454.88;;;13.39;47.15
55656;BME280;41530;52.382;5.270;2023-02-28T06:36:42;103460.16;;;13.39;47.07
55656;BME280;41530;52.382;5.270;2023-02-28T06:39:09;103448.91;;;13.34;47.25
55656;BME280;41530;52.382;5.270;2023-02-28T06:41:36;103450.81;;;13.31;47.10
55656;BME280;41530;52.382;5.270;2023-02-28T06:44:20;103453.59;;;13.28;46.85
55656;BME280;41530;52.382;5.270;2023-02-28T06:46:47;103458.66;;;13.32;46.64
55656;BME280;41530;52.382;5.270;2023-02-28T06:49:13;103449.22;;;13.27;46.65
55656;BME280;41530;52.382;5.270;2023-02-28T06:51:43;103463.91;;;13.34;46.54
55656;BME280;41530;52.382;5.270;2023-02-28T06:54:12;103463.91;;;13.34;46.94
55656;BME280;41530;52.382;5.270;2023-02-28T06:56:39;103467.47;;;13.33;46.68
55656;BME280;41530;52.382;5.270;2023-02-28T06:59:06;103476.19;;;13.35;46.65
55656;BME280;41530;52.382;5.270;2023-02-28T07:01:32;103461.47;;;13.29;46.45
55656;BME280;41530;52.382;5.270;2023-02-28T07:04:00;103476.94;;;13.38;46.71
55656;BME280;41530;52.382;5.270;2023-02-28T07:06:27;103481.31;;;13.39;47.07
55656;BME280;41530;52.382;5.270;2023-02-28T07:08:54;103478.72;;;13.38;46.96
55656;BME280;41530;52.382;5.270;2023-02-28T07:11:23;103482.25;;;13.38;47.03
55656;BME280;41530;52.382;5.270;2023-02-28T07:13:53;103479.47;;;13.41;47.10
55656;BME280;41530;52.382;5.270;2023-02-28T07:16:20;103469.94;;;13.37;47.30
55656;BME280;41530;52.382;5.270;2023-02-28T07:18:47;103489.06;;;13.44;47.61
55656;BME280;41530;52.382;5.270;2023-02-28T07:21:14;103489.00;;;13.45;47.52
55656;BME280;41530;52.382;5.270;2023-02-28T07:23:41;103488.22;;;13.43;47.40
55656;BME280;41530;52.382;5.270;2023-02-28T07:26:13;103492.66;;;13.43;47.42
55656;BME280;41530;52.382;5.270;2023-02-28T07:28:42;103483.78;;;13.44;47.37
55656;BME280;41530;52.382;5.270;2023-02-28T07:31:09;103481.22;;;13.42;47.19
55656;BME280;41530;52.382;5.270;2023-02-28T07:33:36;103489.78;;;13.47;47.68
55656;BME280;41530;52.382;5.270;2023-02-28T07:36:08;103491.56;;;13.47;47.40
55656;BME280;41530;52.382;5.270;2023-02-28T07:38:36;103477.69;;;13.42;47.37
55656;BME280;41530;52.382;5.270;2023-02-28T07:41:04;103486.28;;;13.47;47.31
55656;BME280;41530;52.382;5.270;2023-02-28T07:43:32;103488.94;;;13.47;47.29
55656;BME280;41530;52.382;5.270;2023-02-28T07:48:29;103484.66;;;13.44;48.23
55656;BME280;41530;52.382;5.270;2023-02-28T07:50:57;103467.97;;;13.42;48.07
55656;BME280;41530;52.382;5.270;2023-02-28T07:53:24;103479.22;;;13.47;48.07
55656;BME280;41530;52.382;5.270;2023-02-28T07:55:54;103474.84;;;13.46;48.16
55656;BME280;41530;52.382;5.270;2023-02-28T07:58:22;103468.63;;;13.47;48.19
55656;BME280;41530;52.382;5.270;2023-02-28T08:00:49;103476.56;;;13.47;48.26
55656;BME280;41530;52.382;5.270;2023-02-28T08:03:17;103466.97;;;13.45;48.41
55656;BME280;41530;52.382;5.270;2023-02-28T08:05:44;103463.41;;;13.46;48.46
55656;BME280;41530;52.382;5.270;2023-02-28T08:08:10;103472.03;;;13.51;48.47
55656;BME280;41530;52.382;5.270;2023-02-28T08:10:37;103471.22;;;13.49;48.53
55656;BME280;41530;52.382;5.270;2023-02-28T08:13:04;103460.66;;;13.49;48.64
55656;BME280;41530;52.382;5.270;2023-02-28T08:15:30;103466.75;;;13.51;48.76
55656;BME280;41530;52.382;5.270;2023-02-28T08:17:57;103477.38;;;13.49;48.66
55656;BME280;41530;52.382;5.270;2023-02-28T08:20:25;103478.13;;;13.53;48.62
55656;BME280;41530;52.382;5.270;2023-02-28T08:22:52;103486.91;;;13.53;48.87
55656;BME280;41530;52.382;5.270;2023-02-28T08:25:19;103475.66;;;13.48;49.17
55656;BME280;41530;52.382;5.270;2023-02-28T08:27:45;103464.09;;;13.51;48.92
55656;BME280;41530;52.382;5.270;2023-02-28T08:30:13;103472.16;;;13.48;49.00
55656;BME280;41530;52.382;5.270;2023-02-28T08:32:41;103481.00;;;13.47;49.00
55656;BME280;41530;52.382;5.270;2023-02-28T08:35:08;103473.81;;;13.50;48.80
55656;BME280;41530;52.382;5.270;2023-02-28T08:37:36;103476.50;;;13.49;49.32
55656;BME280;41530;52.382;5.270;2023-02-28T08:40:03;103476.63;;;13.46;48.92
55656;BME280;41530;52.382;5.270;2023-02-28T08:42:54;103480.03;;;13.49;48.99
55656;BME280;41530;52.382;5.270;2023-02-28T08:45:21;103478.25;;;13.50;49.02
55656;BME280;41530;52.382;5.270;2023-02-28T08:47:47;103482.59;;;13.51;48.71
55656;BME280;41530;52.382;5.270;2023-02-28T08:50:14;103471.44;;;13.44;49.01
55656;BME280;41530;52.382;5.270;2023-02-28T08:52:42;103472.19;;;13.46;49.05
55656;BME280;41530;52.382;5.270;2023-02-28T08:55:10;103472.19;;;13.46;48.91
55656;BME280;41530;52.382;5.270;2023-02-28T08:57:36;103480.88;;;13.50;48.92
55656;BME280;41530;52.382;5.270;2023-02-28T09:00:04;103474.31;;;13.38;48.86
55656;BME280;41530;52.382;5.270;2023-02-28T09:02:31;103482.66;;;13.49;48.70
55656;BME280;41530;52.382;5.270;2023-02-28T09:04:58;103478.28;;;13.48;48.68
55656;BME280;41530;52.382;5.270;2023-02-28T09:07:25;103487.09;;;13.49;48.68
55656;BME280;41530;52.382;5.270;2023-02-28T09:09:51;103497.63;;;13.50;49.02
55656;BME280;41530;52.382;5.270;2023-02-28T09:12:22;103492.22;;;13.53;48.96
55656;BME280;41530;52.382;5.270;2023-02-28T09:14:49;103498.47;;;13.51;48.69
55656;BME280;41530;52.382;5.270;2023-02-28T09:17:15;103504.56;;;13.53;48.82
55656;BME280;41530;52.382;5.270;2023-02-28T09:19:42;103508.03;;;13.55;48.84
55656;BME280;41530;52.382;5.270;2023-02-28T09:22:10;103507.16;;;13.54;48.56
55656;BME280;41530;52.382;5.270;2023-02-28T09:24:38;103499.28;;;13.53;48.89
55656;BME280;41530;52.382;5.270;2023-02-28T09:27:05;103506.34;;;13.52;48.59
55656;BME280;41530;52.382;5.270;2023-02-28T09:29:33;103487.03;;;13.50;48.82
55656;BME280;41530;52.382;5.270;2023-02-28T09:32:01;103500.94;;;13.55;48.44
55656;BME280;41530;52.382;5.270;2023-02-28T09:34:29;103498.31;;;13.55;48.59
55656;BME280;41530;52.382;5.270;2023-02-28T09:36:57;103502.72;;;13.55;48.79
55656;BME280;41530;52.382;5.270;2023-02-28T09:39:24;103500.19;;;13.52;48.69
55656;BME280;41530;52.382;5.270;2023-02-28T09:41:53;103494.97;;;13.50;48.71
55656;BME280;41530;52.382;5.270;2023-02-28T09:44:28;103494.06;;;13.51;48.61
55656;BME280;41530;52.382;5.270;2023-02-28T09:47:11;103502.78;;;13.53;48.78
55656;BME280;41530;52.382;5.270;2023-02-28T09:49:43;103509.75;;;13.56;48.66
55656;BME280;41530;52.382;5.270;2023-02-28T09:52:19;103501.00;;;13.54;48.73
55656;BME280;41530;52.382;5.270;2023-02-28T09:54:46;103503.66;;;13.54;48.76
55656;BME280;41530;52.382;5.270;2023-02-28T09:57:24;103514.97;;;13.58;48.50
55656;BME280;41530;52.382;5.270;2023-02-28T10:00:16;103514.97;;;13.58;48.70
55656;BME280;41530;52.382;5.270;2023-02-28T10:03:06;103507.03;;;13.58;48.74
55656;BME280;41530;52.382;5.270;2023-02-28T10:06:00;103492.16;;;13.55;48.53
55656;BME280;41530;52.382;5.270;2023-02-28T10:08:30;103499.22;;;13.54;48.36
55656;BME280;41530;52.382;5.270;2023-02-28T10:11:06;103500.81;;;13.59;48.49
55656;BME280;41530;52.382;5.270;2023-02-28T10:13:53;103501.53;;;13.62;48.29
55656;BME280;41530;52.382;5.270;2023-02-28T10:16:40;103511.22;;;13.63;48.04
55656;BME280;41530;52.382;5.270;2023-02-28T10:19:38;103514.66;;;13.65;48.35
55656;BME280;41530;52.382;5.270;2023-02-28T10:22:29;103512.00;;;13.65;48.38
55656;BME280;41530;52.382;5.270;2023-02-28T10:24:59;103510.22;;;13.66;48.24
55656;BME280;41530;52.382;5.270;2023-02-28T10:27:32;103499.03;;;13.59;48.32
55656;BME280;41530;52.382;5.270;2023-02-28T10:30:01;103513.69;;;13.68;48.32
55656;BME280;41530;52.382;5.270;2023-02-28T10:32:32;103508.34;;;13.69;48.30
55656;BME280;41530;52.382;5.270;2023-02-28T10:37:39;103506.50;;;13.71;48.40
55656;BME280;41530;52.382;5.270;2023-02-28T10:40:26;103504.78;;;13.70;47.95
55656;BME280;41530;52.382;5.270;2023-02-28T10:43:02;103501.09;;;13.73;47.89
55656;BME280;41530;52.382;5.270;2023-02-28T10:45:34;103498.41;;;13.74;47.80
55656;BME280;41530;52.382;5.270;2023-02-28T10:55:43;103496.44;;;13.79;48.10
55656;BME280;41530;52.382;5.270;2023-02-28T10:58:24;103498.16;;;13.80;47.97
55656;BME280;41530;52.382;5.270;2023-02-28T11:00:52;103488.50;;;13.79;48.17
55656;BME280;41530;52.382;5.270;2023-02-28T11:03:25;103487.66;;;13.79;47.91
55656;BME280;41530;52.382;5.270;2023-02-28T11:05:54;103479.66;;;13.80;48.14
55656;BME280;41530;52.382;5.270;2023-02-28T11:08:21;103482.22;;;13.82;48.00
55656;BME280;41530;52.382;5.270;2023-02-28T11:10:59;103468.25;;;13.78;47.86
55656;BME280;41530;52.382;5.270;2023-02-28T11:13:33;103467.22;;;13.82;48.11
55656;BME280;41530;52.382;5.270;2023-02-28T11:16:06;103473.44;;;13.81;47.98
55656;BME280;41530;52.382;5.270;2023-02-28T11:18:50;103469.81;;;13.84;48.12
55656;BME280;41530;52.382;5.270;2023-02-28T11:21:24;103475.88;;;13.86;48.56
55656;BME280;41530;52.382;5.270;2023-02-28T11:24:01;103457.56;;;13.81;48.36
55656;BME280;41530;52.382;5.270;2023-02-28T11:29:16;103464.28;;;13.88;48.48
55656;BME280;41530;52.382;5.270;2023-02-28T11:34:38;103452.97;;;13.85;48.92
55656;BME280;41530;52.382;5.270;2023-02-28T11:37:11;103443.34;;;13.84;48.56
55656;BME280;41530;52.382;5.270;2023-02-28T11:39:39;103448.69;;;13.82;48.67
55656;BME280;41530;52.382;5.270;2023-02-28T11:53:49;103442.47;;;13.83;49.15
55656;BME280;41530;52.382;5.270;2023-02-28T11:56:36;103440.59;;;13.85;48.64
55656;BME280;41530;52.382;5.270;2023-02-28T12:01:42;103432.88;;;13.81;48.82
55656;BME280;41530;52.382;5.270;2023-02-28T12:04:30;103429.25;;;13.83;49.24
55656;BME280;41530;52.382;5.270;2023-02-28T12:21:18;103416.72;;;13.87;49.21
55656;BME280;41530;52.382;5.270;2023-02-28T12:26:37;103426.25;;;13.91;49.62
55656;BME280;41530;52.382;5.270;2023-02-28T12:29:28;103419.31;;;13.88;49.08
55656;BME280;41530;52.382;5.270;2023-02-28T12:32:01;103400.28;;;13.80;49.16
55656;BME280;41530;52.382;5.270;2023-02-28T12:34:39;103415.63;;;13.93;49.38
55656;BME280;41530;52.382;5.270;2023-02-28T12:37:12;103406.94;;;13.89;49.35
55656;BME280;41530;52.382;5.270;2023-02-28T12:39:44;103402.56;;;13.88;49.27
55656;BME280;41530;52.382;5.270;2023-02-28T12:42:27;103416.34;;;13.96;49.65
55656;BME280;41530;52.382;5.270;2023-02-28T12:45:01;103408.47;;;13.95;49.33
55656;BME280;41530;52.382;5.270;2023-02-28T12:47:28;103405.84;;;13.95;48.98
55656;BME280;41530;52.382;5.270;2023-02-28T12:55:58;103399.44;;;13.99;49.08
55656;BME280;41530;52.382;5.270;2023-02-28T13:09:21;103384.44;;;13.99;49.03
55656;BME280;41530;52.382;5.270;2023-02-28T13:11:49;103389.53;;;14.04;49.30
55656;BME280;41530;52.382;5.270;2023-02-28T13:16:58;103386.84;;;14.05;49.11
55656;BME280;41530;52.382;5.270;2023-02-28T13:19:27;103379.09;;;14.01;49.02
55656;BME280;41530;52.382;5.270;2023-02-28T13:21:56;103380.63;;;14.06;49.22
55656;BME280;41530;52.382;5.270;2023-02-28T13:29:39;103391.94;;;14.10;49.21
55656;BME280;41530;52.382;5.270;2023-02-28T13:47:40;103371.19;;;14.19;49.32
55656;BME280;41530;52.382;5.270;2023-02-28T14:02:29;103360.41;;;14.24;49.30
55656;BME280;41530;52.382;5.270;2023-02-28T14:05:05;103358.69;;;14.23;49.22
55656;BME280;41530;52.382;5.270;2023-02-28T14:07:57;103362.09;;;14.25;49.46
55656;BME280;41530;52.382;5.270;2023-02-28T14:10:30;103347.16;;;14.24;49.40
55656;BME280;41530;52.382;5.270;2023-02-28T14:18:33;103356.47;;;14.33;49.46
55656;BME280;41530;52.382;5.270;2023-02-28T14:21:09;103352.09;;;14.32;49.42
55656;BME280;41530;52.382;5.270;2023-02-28T14:23:54;103349.53;;;14.30;49.39
55656;BME280;41530;52.382;5.270;2023-02-28T14:32:35;103347.38;;;14.38;49.36
55656;BME280;41530;52.382;5.270;2023-02-28T14:37:53;103351.03;;;14.36;49.48
55656;BME280;41530;52.382;5.270;2023-02-28T14:40:30;103348.13;;;14.42;49.48
55656;BME280;41530;52.382;5.270;2023-02-28T14:43:00;103356.00;;;14.43;49.33
55656;BME280;41530;52.382;5.270;2023-02-28T14:45:29;103336.69;;;14.41;49.35
55656;BME280;41530;52.382;5.270;2023-02-28T14:47:58;103331.19;;;14.46;49.40
55656;BME280;41530;52.382;5.270;2023-02-28T14:50:36;103338.19;;;14.47;49.48
55656;BME280;41530;52.382;5.270;2023-02-28T14:53:06;103338.19;;;14.47;49.63
55656;BME280;41530;52.382;5.270;2023-02-28T14:55:36;103325.88;;;14.46;49.42
55656;BME280;41530;52.382;5.270;2023-02-28T14:58:05;103333.63;;;14.50;49.63
55656;BME280;41530;52.382;5.270;2023-02-28T15:00:34;103335.41;;;14.50;50.77
55656;BME280;41530;52.382;5.270;2023-02-28T15:03:42;103336.28;;;14.50;50.67
55656;BME280;41530;52.382;5.270;2023-02-28T15:06:15;103336.97;;;14.54;50.51
55656;BME280;41530;52.382;5.270;2023-02-28T15:08:44;103335.09;;;14.56;50.01
55656;BME280;41530;52.382;5.270;2023-02-28T15:11:16;103334.19;;;14.57;50.04
55656;BME280;41530;52.382;5.270;2023-02-28T15:13:53;103335.97;;;14.56;50.09
55656;BME280;41530;52.382;5.270;2023-02-28T15:19:01;103337.63;;;14.59;49.84
55656;BME280;41530;52.382;5.270;2023-02-28T15:21:38;103324.50;;;14.56;49.86
55656;BME280;41530;52.382;5.270;2023-02-28T15:24:15;103333.13;;;14.61;49.90
55656;BME280;41530;52.382;5.270;2023-02-28T15:26:46;103320.94;;;14.57;50.05
55656;BME280;41530;52.382;5.270;2023-02-28T15:29:19;103326.16;;;14.58;49.90
55656;BME280;41530;52.382;5.270;2023-02-28T15:31:56;103324.31;;;14.60;49.86
55656;BME280;41530;52.382;5.270;2023-02-28T15:37:23;103327.50;;;14.67;49.92
55656;BME280;41530;52.382;5.270;2023-02-28T15:39:53;103320.00;;;14.58;49.93
55656;BME280;41530;52.382;5.270;2023-02-28T15:42:21;103332.03;;;14.65;50.01
55656;BME280;41530;52.382;5.270;2023-02-28T15:44:49;103336.25;;;14.69;49.88
55656;BME280;41530;52.382;5.270;2023-02-28T15:47:21;103331.75;;;14.71;49.90
55656;BME280;41530;52.382;5.270;2023-02-28T15:49:54;103310.81;;;14.65;49.80